Time;durP1;ratioP1;P1;durP2;ratioP2;P2;SDS_P1;SDS_P2;PMS_P1;PMS_P2;Temp;Humidity;BMP_temperature;BMP_pressure;BME280_temperature;BME280_humidity;BME280_pressure;Samples;Min_cycle;Max_cycle;Signal;HPM_P1;HPM_P2
2022/02/20 00:01:45;;;;;;;6.85;5.65;;;3.10;99.90;;;;;;5034859;28;20632;-52
2022/02/20 00:04:11;;;;;;;10.25;5.57;;;3.10;99.90;;;;;;5011479;28;20029;-52
2022/02/20 00:06:36;;;;;;;8.27;6.13;;;3.10;99.90;;;;;;5047003;28;20041;-51
2022/02/20 00:09:03;;;;;;;8.20;4.97;;;3.10;99.90;;;;;;5049020;28;20504;-52
2022/02/20 00:11:28;;;;;;;6.70;5.72;;;3.10;99.90;;;;;;5048551;28;20032;-52
2022/02/20 00:13:54;;;;;;;6.85;5.00;;;3.10;99.90;;;;;;5048831;28;20381;-52
2022/02/20 00:16:20;;;;;;;7.00;5.43;;;3.20;99.90;;;;;;5048427;28;20548;-51
2022/02/20 00:18:46;;;;;;;5.65;4.63;;;3.10;99.90;;;;;;5049104;28;20029;-51
2022/02/20 00:21:11;;;;;;;6.82;5.43;;;3.10;99.90;;;;;;5048615;28;20374;-51
2022/02/20 00:23:37;;;;;;;8.63;5.20;;;3.10;99.90;;;;;;5048444;28;20385;-51
2022/02/20 00:26:03;;;;;;;6.93;4.63;;;3.10;99.90;;;;;;5046909;28;20079;-51
2022/02/20 00:28:29;;;;;;;4.40;4.00;;;3.10;99.90;;;;;;5051250;28;20078;-51
2022/02/20 00:30:54;;;;;;;7.60;4.40;;;3.10;99.90;;;;;;5043816;28;20029;-52
2022/02/20 00:33:20;;;;;;;6.28;3.88;;;3.10;99.90;;;;;;5032567;28;20032;-50
2022/02/20 00:35:46;;;;;;;5.88;4.00;;;3.10;99.90;;;;;;5033208;28;20087;-50
2022/02/20 00:38:12;;;;;;;3.92;3.15;;;3.10;99.90;;;;;;5032654;28;20175;-52
2022/02/20 00:40:38;;;;;;;6.55;3.40;;;3.10;99.90;;;;;;5032706;28;20030;-52
2022/02/20 00:43:04;;;;;;;7.70;3.50;;;3.10;99.90;;;;;;5014737;28;20026;-52
2022/02/20 00:45:30;;;;;;;4.47;2.70;;;3.10;99.90;;;;;;5032239;28;20327;-50
2022/02/20 00:47:56;;;;;;;7.70;3.92;;;3.10;99.90;;;;;;5032636;28;20028;-52
2022/02/20 00:50:21;;;;;;;4.47;3.13;;;3.10;99.90;;;;;;5032596;28;20051;-52
2022/02/20 00:52:47;;;;;;;6.05;3.20;;;3.10;99.90;;;;;;5014626;28;20034;-51
2022/02/20 00:55:13;;;;;;;4.20;2.88;;;3.20;99.90;;;;;;5032616;28;20025;-52
2022/02/20 00:57:39;;;;;;;3.20;2.90;;;3.10;99.90;;;;;;5032535;28;20025;-49
2022/02/20 01:00:07;;;;;;;3.95;2.80;;;3.10;99.90;;;;;;5050267;28;20024;-52
2022/02/20 01:02:33;;;;;;;4.22;3.10;;;3.20;99.90;;;;;;5051968;28;20547;-51
2022/02/20 01:04:58;;;;;;;3.22;2.22;;;3.20;99.90;;;;;;5051997;28;20116;-50
2022/02/20 01:07:24;;;;;;;3.78;2.20;;;3.20;99.90;;;;;;5042497;28;20053;-51
2022/02/20 01:09:50;;;;;;;3.03;1.90;;;3.20;99.90;;;;;;5032787;28;20481;-50
2022/02/20 01:12:16;;;;;;;2.63;1.65;;;3.20;99.90;;;;;;5032307;28;20028;-50
2022/02/20 01:14:46;;;;;;;2.78;1.80;;;3.20;99.90;;;;;;5036272;28;20095;-51
2022/02/20 01:17:14;;;;;;;3.78;2.00;;;3.20;99.90;;;;;;5012406;28;20034;-52
2022/02/20 01:19:40;;;;;;;4.25;1.98;;;3.10;99.90;;;;;;5026910;28;20109;-51
2022/02/20 01:22:06;;;;;;;4.68;1.88;;;3.10;99.90;;;;;;5031627;28;20026;-53
2022/02/20 01:24:33;;;;;;;1.70;1.55;;;3.10;99.90;;;;;;5032149;28;20505;-51
2022/02/20 01:26:59;;;;;;;3.55;2.08;;;3.10;99.90;;;;;;5032273;28;20028;-51
2022/02/20 01:29:25;;;;;;;5.82;2.22;;;3.10;99.90;;;;;;5033333;28;20026;-52
2022/02/20 01:31:53;;;;;;;3.92;1.80;;;3.10;99.90;;;;;;5031782;28;20035;-51
2022/02/20 01:34:19;;;;;;;2.53;1.58;;;3.10;99.90;;;;;;5013535;28;20386;-52
2022/02/20 01:36:45;;;;;;;1.48;1.35;;;3.00;99.90;;;;;;5031641;28;20025;-52
2022/02/20 01:39:10;;;;;;;3.25;1.50;;;3.00;99.90;;;;;;5031704;28;20078;-51
2022/02/20 01:41:36;;;;;;;1.60;1.50;;;3.10;99.90;;;;;;5031736;28;20034;-51
2022/02/20 01:44:01;;;;;;;4.57;1.70;;;3.00;99.90;;;;;;5043512;28;20036;-52
2022/02/20 01:46:27;;;;;;;3.20;1.50;;;3.10;99.90;;;;;;5051852;28;20095;-49
2022/02/20 01:48:53;;;;;;;3.95;1.70;;;3.10;99.90;;;;;;5050025;28;20036;-51
2022/02/20 01:51:18;;;;;;;2.67;1.52;;;3.10;99.90;;;;;;5033250;28;20060;-52
2022/02/20 01:53:44;;;;;;;4.05;1.77;;;3.10;99.90;;;;;;5042726;28;20025;-51
2022/02/20 01:56:11;;;;;;;2.25;1.58;;;3.10;99.90;;;;;;5051164;28;20025;-51
2022/02/20 01:58:37;;;;;;;2.75;1.50;;;3.00;99.90;;;;;;5044773;28;20017;-51
2022/02/20 02:01:04;;;;;;;6.85;1.75;;;3.10;99.90;;;;;;5036629;28;20022;-53
2022/02/20 02:03:30;;;;;;;2.47;1.40;;;3.00;99.90;;;;;;5028961;28;20028;-50
2022/02/20 02:05:55;;;;;;;3.00;1.60;;;3.00;99.90;;;;;;5060173;23;20132;-52
2022/02/20 02:08:21;;;;;;;2.72;1.27;;;3.00;99.90;;;;;;5050644;28;20013;-52
2022/02/20 02:10:47;;;;;;;2.55;2.05;;;3.00;99.90;;;;;;5050648;28;20029;-53
2022/02/20 02:13:12;;;;;;;2.42;2.20;;;3.00;99.90;;;;;;5050324;28;20044;-54
2022/02/20 02:15:54;;;;;;;2.45;2.17;;;3.00;99.90;;;;;;5050786;28;20033;-51
2022/02/20 02:18:20;;;;;;;5.10;2.20;;;3.00;99.90;;;;;;5033043;28;20021;-53
2022/02/20 02:20:47;;;;;;;3.80;2.08;;;3.00;99.90;;;;;;5051667;28;20082;-51
2022/02/20 02:23:17;;;;;;;2.22;1.85;;;3.00;99.90;;;;;;5032778;28;20017;-53
2022/02/20 02:25:43;;;;;;;3.80;1.67;;;2.90;99.90;;;;;;5051287;28;20079;-51
2022/02/20 02:28:09;;;;;;;3.08;1.90;;;2.90;99.90;;;;;;5032842;28;20029;-51
2022/02/20 02:30:35;;;;;;;2.45;1.42;;;3.00;99.90;;;;;;5033177;28;20036;-51
2022/02/20 02:33:01;;;;;;;1.63;1.50;;;2.90;99.90;;;;;;5049553;28;20036;-53
2022/02/20 02:35:26;;;;;;;2.08;1.70;;;3.00;99.90;;;;;;5030779;28;20030;-51
2022/02/20 02:37:53;;;;;;;3.30;1.70;;;2.90;99.90;;;;;;5018436;28;20507;-51
2022/02/20 02:40:20;;;;;;;3.90;2.58;;;2.90;99.90;;;;;;5032873;28;20021;-52
2022/02/20 02:42:45;;;;;;;2.28;2.08;;;2.90;99.90;;;;;;5050157;28;20031;-53
2022/02/20 02:45:11;;;;;;;3.88;2.40;;;2.90;99.90;;;;;;5050538;28;20108;-52
2022/02/20 02:47:36;;;;;;;3.95;1.85;;;2.90;99.90;;;;;;5050273;28;20060;-51
2022/02/20 02:50:02;;;;;;;3.58;2.28;;;2.90;99.90;;;;;;5049383;28;20384;-51
2022/02/20 02:52:28;;;;;;;4.13;1.88;;;2.80;99.90;;;;;;5049291;28;20025;-52
2022/02/20 02:54:53;;;;;;;2.30;2.10;;;2.80;99.90;;;;;;5050437;28;20025;-50
2022/02/20 02:57:19;;;;;;;2.17;1.92;;;2.80;99.90;;;;;;5050141;28;20021;-52
2022/02/20 02:59:45;;;;;;;4.20;2.00;;;2.80;99.90;;;;;;5050327;28;20021;-50
2022/02/20 03:02:11;;;;;;;3.60;2.40;;;2.80;99.90;;;;;;5050074;28;20021;-50
2022/02/20 03:04:36;;;;;;;4.32;2.85;;;2.80;99.90;;;;;;5050633;28;20516;-50
2022/02/20 03:07:02;;;;;;;3.92;2.38;;;2.80;99.90;;;;;;5049520;28;20041;-52
2022/02/20 03:09:28;;;;;;;4.00;2.15;;;2.80;99.90;;;;;;5032397;28;20060;-51
2022/02/20 03:11:54;;;;;;;3.30;2.63;;;2.90;99.90;;;;;;5049612;28;20032;-51
2022/02/20 03:14:20;;;;;;;4.03;2.88;;;2.80;99.90;;;;;;5049742;28;20020;-51
2022/02/20 03:16:46;;;;;;;3.45;2.92;;;2.80;99.90;;;;;;5049651;28;20558;-53
2022/02/20 03:19:11;;;;;;;3.70;2.85;;;2.80;99.90;;;;;;5049961;28;20059;-50
2022/02/20 03:21:37;;;;;;;3.30;2.97;;;2.80;99.90;;;;;;5049552;28;20420;-51
2022/02/20 03:24:03;;;;;;;3.85;3.22;;;2.80;99.90;;;;;;5049836;28;20395;-49
2022/02/20 03:26:29;;;;;;;4.60;3.55;;;2.80;99.90;;;;;;5049564;28;20082;-51
2022/02/20 03:28:54;;;;;;;3.97;3.58;;;2.80;99.90;;;;;;5049791;28;20710;-50
2022/02/20 03:31:20;;;;;;;4.10;3.70;;;2.80;99.90;;;;;;5031902;28;20037;-52
2022/02/20 03:33:45;;;;;;;5.97;3.45;;;2.80;99.90;;;;;;5048683;28;20108;-51
2022/02/20 03:36:11;;;;;;;4.40;3.85;;;2.80;99.90;;;;;;5049471;28;20029;-49
2022/02/20 03:38:36;;;;;;;6.05;3.88;;;2.80;99.90;;;;;;5049868;28;20024;-51
2022/02/20 03:41:03;;;;;;;5.85;4.50;;;2.80;99.90;;;;;;5050103;28;20021;-50
2022/02/20 03:43:29;;;;;;;4.78;3.95;;;2.80;99.90;;;;;;5049205;28;20108;-53
2022/02/20 03:45:54;;;;;;;4.95;4.50;;;2.80;99.90;;;;;;5031534;28;20108;-52
2022/02/20 03:48:20;;;;;;;5.72;4.82;;;2.80;99.90;;;;;;5049188;28;20025;-50
2022/02/20 03:50:46;;;;;;;7.20;5.13;;;2.80;99.90;;;;;;5049148;28;20036;-50
2022/02/20 03:53:12;;;;;;;5.70;5.07;;;2.80;99.90;;;;;;5049005;28;20058;-52
2022/02/20 03:55:37;;;;;;;5.85;5.25;;;2.90;99.90;;;;;;5049392;28;20033;-54
2022/02/20 03:58:03;;;;;;;7.18;5.78;;;2.80;99.90;;;;;;5048826;28;20424;-51
2022/02/20 04:00:28;;;;;;;9.00;6.65;;;2.80;99.90;;;;;;5031222;28;20099;-51
2022/02/20 04:02:54;;;;;;;7.65;6.45;;;2.80;99.90;;;;;;5034057;28;20017;-49
2022/02/20 04:05:20;;;;;;;8.48;6.65;;;2.80;99.90;;;;;;5052806;28;20511;-50
2022/02/20 04:07:46;;;;;;;8.40;6.68;;;2.80;99.90;;;;;;5053107;28;20025;-54
2022/02/20 04:10:13;;;;;;;8.13;6.97;;;2.90;99.90;;;;;;5053151;28;20593;-50
2022/02/20 04:12:40;;;;;;;8.85;6.82;;;2.90;99.90;;;;;;5035203;28;20028;-49
2022/02/20 04:15:07;;;;;;;8.88;7.10;;;2.90;99.90;;;;;;5053113;28;20037;-50
2022/02/20 04:17:44;;;;;;;8.55;7.65;;;2.90;99.90;;;;;;5053533;28;20083;-48
2022/02/20 04:20:12;;;;;;;9.45;8.05;;;2.90;99.90;;;;;;5034918;28;20033;-51
2022/02/20 04:22:38;;;;;;;9.93;7.93;;;2.90;99.90;;;;;;5053089;28;20017;-50
2022/02/20 04:25:04;;;;;;;9.98;7.75;;;2.90;99.90;;;;;;5052624;28;20097;-50
2022/02/20 04:27:30;;;;;;;11.23;8.55;;;2.90;99.90;;;;;;5034686;28;20388;-50
2022/02/20 04:29:56;;;;;;;12.07;8.52;;;2.90;99.90;;;;;;5052270;28;20029;-51
2022/02/20 04:32:21;;;;;;;8.52;7.32;;;2.90;99.90;;;;;;5034712;28;20025;-52
2022/02/20 04:34:47;;;;;;;12.13;7.70;;;2.90;99.90;;;;;;5051564;28;20520;-51
2022/02/20 04:37:13;;;;;;;11.73;8.43;;;2.90;99.90;;;;;;5034208;28;20025;-52
2022/02/20 04:39:38;;;;;;;11.70;9.38;;;2.90;99.90;;;;;;5052800;28;20028;-52
2022/02/20 04:42:04;;;;;;;15.75;9.02;;;2.90;99.90;;;;;;5052457;28;20048;-51
2022/02/20 04:44:30;;;;;;;12.00;9.07;;;3.00;99.90;;;;;;5052628;28;20025;-53
2022/02/20 04:46:55;;;;;;;11.80;8.65;;;2.90;99.90;;;;;;5033902;28;20029;-53
2022/02/20 04:49:21;;;;;;;11.75;8.90;;;2.90;99.90;;;;;;5052616;28;20033;-52
2022/02/20 04:51:46;;;;;;;11.85;8.85;;;2.90;99.90;;;;;;5034095;28;20029;-53
2022/02/20 04:54:12;;;;;;;14.77;10.30;;;2.90;99.90;;;;;;5052547;28;20031;-56
2022/02/20 04:56:38;;;;;;;11.98;9.18;;;2.90;99.90;;;;;;5052145;28;20438;-49
2022/02/20 04:59:03;;;;;;;12.20;9.50;;;2.90;99.90;;;;;;5052562;28;20025;-55
2022/02/20 05:01:29;;;;;;;15.13;9.43;;;2.90;99.90;;;;;;5051991;28;20377;-51
2022/02/20 05:03:54;;;;;;;13.93;9.55;;;2.90;99.90;;;;;;5052213;28;20485;-53
2022/02/20 05:06:27;;;;;;;15.82;10.40;;;2.90;99.90;;;;;;5051892;28;20539;-52
2022/02/20 05:08:54;;;;;;;15.55;10.25;;;2.90;99.90;;;;;;5052461;28;20531;-52
2022/02/20 05:11:20;;;;;;;15.80;10.85;;;3.00;99.90;;;;;;5052145;28;20064;-51
2022/02/20 05:13:45;;;;;;;14.70;11.00;;;3.00;99.90;;;;;;5051265;28;20048;-50
2022/02/20 05:16:11;;;;;;;14.82;10.05;;;3.00;99.90;;;;;;5051695;28;20043;-50
2022/02/20 05:18:36;;;;;;;12.63;9.77;;;3.00;99.90;;;;;;5052361;28;20021;-50
2022/02/20 05:21:02;;;;;;;12.70;9.90;;;3.00;99.90;;;;;;5033672;28;20376;-53
2022/02/20 05:23:28;;;;;;;14.82;11.55;;;3.00;99.90;;;;;;5051998;28;20102;-50
2022/02/20 05:25:53;;;;;;;16.35;11.35;;;3.00;99.90;;;;;;5051490;28;20496;-54
2022/02/20 05:28:20;;;;;;;14.27;10.75;;;3.00;99.90;;;;;;5034085;28;20033;-50
2022/02/20 05:30:45;;;;;;;14.90;11.68;;;3.00;99.90;;;;;;5034116;28;20404;-53
2022/02/20 05:33:11;;;;;;;18.55;11.63;;;3.10;99.90;;;;;;5050935;28;20087;-53
2022/02/20 05:35:36;;;;;;;17.17;11.18;;;3.00;99.90;;;;;;5034007;28;20028;-54
2022/02/20 05:38:02;;;;;;;17.48;11.88;;;3.00;99.90;;;;;;5051635;28;20382;-50
2022/02/20 05:40:29;;;;;;;13.38;10.18;;;3.00;99.90;;;;;;5033745;28;20033;-50
2022/02/20 05:42:57;;;;;;;17.48;11.52;;;3.00;99.90;;;;;;5051415;28;20096;-51
2022/02/20 05:45:23;;;;;;;15.43;12.00;;;3.00;99.90;;;;;;5051175;28;20033;-50
2022/02/20 05:47:49;;;;;;;14.73;11.55;;;3.00;99.90;;;;;;5051784;28;20455;-50
2022/02/20 05:50:15;;;;;;;16.35;11.57;;;3.00;99.90;;;;;;5051537;28;20032;-50
2022/02/20 05:52:41;;;;;;;15.70;11.77;;;3.00;99.90;;;;;;5051318;28;20021;-50
2022/02/20 05:55:07;;;;;;;18.02;11.60;;;3.00;99.90;;;;;;5051241;28;20025;-51
2022/02/20 05:57:50;;;;;;;15.30;10.77;;;3.00;99.90;;;;;;5051368;28;20021;-51
2022/02/20 06:00:18;;;;;;;14.70;10.88;;;3.00;99.90;;;;;;5033089;28;20036;-51
2022/02/20 06:02:44;;;;;;;15.73;9.93;;;3.00;99.90;;;;;;5051287;28;20024;-51
2022/02/20 06:05:10;;;;;;;14.68;9.57;;;3.00;99.90;;;;;;5033168;28;20017;-50
2022/02/20 06:07:38;;;;;;;16.00;10.15;;;3.00;99.90;;;;;;5051541;28;20043;-51
2022/02/20 06:10:05;;;;;;;14.75;10.63;;;3.00;99.90;;;;;;5033151;28;20028;-51
2022/02/20 06:12:31;;;;;;;12.60;9.57;;;3.00;99.90;;;;;;5050634;28;20392;-50
2022/02/20 06:14:57;;;;;;;14.77;10.52;;;3.00;99.90;;;;;;5050905;28;20036;-53
2022/02/20 06:17:22;;;;;;;13.18;9.80;;;3.10;99.90;;;;;;5050997;28;20389;-50
2022/02/20 06:19:48;;;;;;;13.55;9.75;;;3.00;99.90;;;;;;5032980;28;20084;-52
2022/02/20 06:22:14;;;;;;;17.90;9.65;;;3.00;99.90;;;;;;5050928;28;20451;-54
2022/02/20 06:24:39;;;;;;;11.90;8.75;;;3.00;99.90;;;;;;5032293;28;20079;-53
2022/02/20 06:27:05;;;;;;;11.32;8.27;;;3.00;99.90;;;;;;5050111;28;20025;-52
2022/02/20 06:29:31;;;;;;;12.43;8.13;;;3.00;99.90;;;;;;5050599;28;20063;-52
2022/02/20 06:31:57;;;;;;;11.50;8.38;;;3.00;99.90;;;;;;5050840;28;20028;-53
2022/02/20 06:34:23;;;;;;;14.80;8.77;;;3.00;99.90;;;;;;5032469;28;20029;-51
2022/02/20 06:36:49;;;;;;;10.75;6.95;;;3.00;99.90;;;;;;5050626;28;20025;-53
2022/02/20 06:39:15;;;;;;;13.07;8.05;;;3.10;99.90;;;;;;5050531;28;20027;-49
2022/02/20 06:41:40;;;;;;;11.13;7.65;;;3.00;99.90;;;;;;5050629;28;20090;-51
2022/02/20 06:44:06;;;;;;;11.32;8.05;;;3.00;99.90;;;;;;5049988;28;20088;-51
2022/02/20 06:46:32;;;;;;;9.90;7.60;;;3.00;99.90;;;;;;5050864;28;20029;-53
2022/02/20 06:48:58;;;;;;;10.40;7.82;;;3.00;99.90;;;;;;5032370;28;20036;-52
2022/02/20 06:51:23;;;;;;;14.98;8.70;;;3.10;99.90;;;;;;5050530;28;20499;-54
2022/02/20 06:53:49;;;;;;;12.07;7.80;;;3.00;99.90;;;;;;5049980;28;20040;-51
2022/02/20 06:56:15;;;;;;;12.32;7.50;;;3.00;99.90;;;;;;5050125;28;20029;-51
2022/02/20 06:58:40;;;;;;;11.07;7.55;;;3.00;99.90;;;;;;5049987;28;20100;-50
2022/02/20 07:01:06;;;;;;;10.32;6.40;;;3.00;99.90;;;;;;5050066;28;20088;-52
2022/02/20 07:03:32;;;;;;;12.63;7.38;;;3.00;99.90;;;;;;5049688;28;20032;-52
2022/02/20 07:05:58;;;;;;;10.10;7.50;;;3.00;99.90;;;;;;5032135;28;20037;-51
2022/02/20 07:08:24;;;;;;;11.40;7.72;;;3.10;99.90;;;;;;5032155;28;20102;-50
2022/02/20 07:10:49;;;;;;;12.00;7.28;;;3.00;99.90;;;;;;5050113;28;20051;-50
2022/02/20 07:13:15;;;;;;;12.07;8.23;;;3.00;99.90;;;;;;5049492;28;20178;-50
2022/02/20 07:15:41;;;;;;;11.43;8.32;;;3.00;99.90;;;;;;5049969;28;20029;-50
2022/02/20 07:18:07;;;;;;;12.95;8.35;;;3.10;99.90;;;;;;5032124;28;20017;-52
2022/02/20 07:20:33;;;;;;;12.65;8.55;;;3.10;99.90;;;;;;5032434;28;20366;-52
2022/02/20 07:22:58;;;;;;;16.10;8.25;;;3.00;99.90;;;;;;5049963;28;20021;-52
2022/02/20 07:25:24;;;;;;;11.93;8.60;;;3.00;99.90;;;;;;5049986;28;20032;-50
2022/02/20 07:27:53;;;;;;;11.00;7.22;;;3.10;99.90;;;;;;5048938;28;20025;-51
2022/02/20 07:30:21;;;;;;;13.95;8.43;;;3.10;99.90;;;;;;5049170;28;20052;-49
2022/02/20 07:32:47;;;;;;;11.05;7.72;;;3.10;99.90;;;;;;5049428;28;20029;-51
2022/02/20 07:35:13;;;;;;;13.68;8.80;;;3.10;99.90;;;;;;5049556;28;20554;-50
2022/02/20 07:37:39;;;;;;;13.63;7.72;;;3.10;99.90;;;;;;5031418;28;20032;-52
2022/02/20 07:40:06;;;;;;;9.50;6.25;;;3.10;99.90;;;;;;5049194;28;20029;-52
2022/02/20 07:42:32;;;;;;;7.85;5.63;;;3.10;99.90;;;;;;5049426;28;20023;-49
2022/02/20 07:44:57;;;;;;;5.80;4.32;;;3.10;99.90;;;;;;5049056;28;20025;-51
2022/02/20 07:47:23;;;;;;;5.80;4.97;;;3.10;99.90;;;;;;5049151;28;20401;-51
2022/02/20 07:49:49;;;;;;;7.65;4.60;;;3.10;99.90;;;;;;5031293;28;20043;-52
2022/02/20 07:52:14;;;;;;;8.05;4.88;;;3.10;99.90;;;;;;5048804;28;20024;-49
2022/02/20 07:54:40;;;;;;;5.97;4.10;;;3.10;99.90;;;;;;5048012;28;20044;-50
2022/02/20 07:57:06;;;;;;;5.95;4.25;;;3.10;99.90;;;;;;5049453;28;20396;-51
2022/02/20 07:59:33;;;;;;;4.85;4.35;;;3.10;99.90;;;;;;5049209;28;20546;-50
2022/02/20 08:01:58;;;;;;;6.00;4.35;;;3.20;99.90;;;;;;5049925;28;20204;-52
2022/02/20 08:04:24;;;;;;;7.40;4.47;;;3.10;99.90;;;;;;5049521;28;20029;-52
2022/02/20 08:06:51;;;;;;;7.30;4.93;;;3.10;99.90;;;;;;5172325;23;20495;-48
2022/02/20 08:09:17;;;;;;;6.35;5.07;;;3.10;99.90;;;;;;5085899;28;20016;-52
2022/02/20 08:11:43;;;;;;;6.85;5.45;;;3.20;99.90;;;;;;5070190;28;20044;-51
2022/02/20 08:14:09;;;;;;;6.47;5.13;;;3.20;99.90;;;;;;5068887;28;20021;-51
2022/02/20 08:16:35;;;;;;;6.57;5.78;;;3.20;99.90;;;;;;5068966;28;20033;-50
2022/02/20 08:19:02;;;;;;;7.93;5.78;;;3.20;99.90;;;;;;5069206;28;20055;-52
2022/02/20 08:21:28;;;;;;;8.05;5.65;;;3.20;99.90;;;;;;5069297;28;20056;-51
2022/02/20 08:23:53;;;;;;;9.18;6.53;;;3.20;99.90;;;;;;5068956;28;20199;-51
2022/02/20 08:26:19;;;;;;;7.47;5.90;;;3.20;99.90;;;;;;5069194;28;20045;-53
2022/02/20 08:28:45;;;;;;;8.02;5.25;;;3.30;99.90;;;;;;5069253;28;20039;-52
2022/02/20 08:31:11;;;;;;;6.68;5.03;;;3.30;99.90;;;;;;5069029;28;20033;-52
2022/02/20 08:33:37;;;;;;;5.50;4.82;;;3.30;99.90;;;;;;5069126;28;20407;-52
2022/02/20 08:36:03;;;;;;;6.22;4.68;;;3.20;99.90;;;;;;5068771;28;20395;-50
2022/02/20 08:38:29;;;;;;;6.22;4.95;;;3.30;99.90;;;;;;5069496;28;20024;-52
2022/02/20 08:40:54;;;;;;;7.30;4.53;;;3.30;99.90;;;;;;5069332;28;20021;-50
2022/02/20 08:43:20;;;;;;;5.05;4.32;;;3.30;99.90;;;;;;5069956;28;20027;-51
2022/02/20 08:45:48;;;;;;;5.85;4.20;;;3.30;99.90;;;;;;5069527;28;20510;-53
2022/02/20 08:48:14;;;;;;;5.10;4.60;;;3.20;99.90;;;;;;5073637;28;20028;-54
2022/02/20 08:50:42;;;;;;;5.43;4.10;;;3.20;99.90;;;;;;5077775;28;20035;-50
2022/02/20 08:53:08;;;;;;;6.43;4.60;;;3.20;99.90;;;;;;5054357;28;20039;-51
2022/02/20 08:55:33;;;;;;;7.47;4.82;;;3.20;99.90;;;;;;5071954;28;20549;-53
2022/02/20 08:57:59;;;;;;;6.20;4.63;;;3.20;99.90;;;;;;5072448;28;20035;-50
2022/02/20 09:00:24;;;;;;;5.15;3.97;;;3.20;99.90;;;;;;5055801;28;20044;-51
2022/02/20 09:02:50;;;;;;;4.60;4.07;;;3.20;99.90;;;;;;5072378;28;20032;-51
2022/02/20 09:05:16;;;;;;;5.75;4.60;;;3.20;99.90;;;;;;5073620;28;20028;-50
2022/02/20 09:07:42;;;;;;;6.90;4.70;;;3.20;99.90;;;;;;5072335;28;20119;-50
2022/02/20 09:10:09;;;;;;;5.20;4.55;;;3.20;99.90;;;;;;5074288;28;20441;-50
2022/02/20 09:12:35;;;;;;;6.13;4.78;;;3.10;99.90;;;;;;5092311;28;20021;-51
2022/02/20 09:15:05;;;;;;;5.18;4.40;;;3.10;99.90;;;;;;5091087;28;20502;-51
2022/02/20 09:17:32;;;;;;;5.68;3.92;;;3.10;99.90;;;;;;5072468;28;20032;-51
2022/02/20 09:19:59;;;;;;;5.13;3.95;;;3.10;99.90;;;;;;5073258;28;20052;-51
2022/02/20 09:22:24;;;;;;;6.28;4.50;;;3.10;99.90;;;;;;5054584;28;20483;-51
2022/02/20 09:24:50;;;;;;;5.75;4.20;;;3.10;99.90;;;;;;5072563;28;20024;-50
2022/02/20 09:27:16;;;;;;;5.63;4.75;;;3.10;99.90;;;;;;5090968;28;20119;-51
2022/02/20 09:29:41;;;;;;;5.53;4.53;;;3.10;99.90;;;;;;5092386;28;20036;-50
2022/02/20 09:32:07;;;;;;;6.32;4.95;;;3.00;99.90;;;;;;5091892;28;20032;-50
2022/02/20 09:34:33;;;;;;;7.95;5.13;;;3.00;99.90;;;;;;5082206;28;20090;-52
2022/02/20 09:36:59;;;;;;;6.68;5.30;;;3.10;99.90;;;;;;5081394;28;20510;-50
2022/02/20 09:39:24;;;;;;;6.53;5.05;;;3.10;99.90;;;;;;5091963;28;20020;-50
2022/02/20 09:41:50;;;;;;;5.70;4.68;;;3.10;99.90;;;;;;5092624;28;20111;-50
2022/02/20 09:44:16;;;;;;;6.13;5.30;;;3.10;99.90;;;;;;5091025;28;20377;-52
2022/02/20 09:46:44;;;;;;;6.93;6.15;;;3.10;99.90;;;;;;5074311;28;20035;-52
2022/02/20 09:49:10;;;;;;;7.60;5.68;;;3.10;99.90;;;;;;5076806;28;20464;-50
2022/02/20 09:51:37;;;;;;;6.47;5.70;;;3.10;99.90;;;;;;5054446;28;20036;-50
2022/02/20 09:54:03;;;;;;;9.23;5.53;;;3.10;99.90;;;;;;5071985;28;20033;-52
2022/02/20 09:56:28;;;;;;;6.90;5.18;;;3.10;99.90;;;;;;5073229;28;20057;-52
2022/02/20 09:58:55;;;;;;;6.18;5.32;;;3.10;99.90;;;;;;5072485;28;20028;-50
2022/02/20 10:01:21;;;;;;;7.25;5.32;;;3.10;99.90;;;;;;5073753;28;20112;-53
2022/02/20 10:03:48;;;;;;;5.45;4.47;;;3.10;99.90;;;;;;5081939;28;20116;-52
2022/02/20 10:06:18;;;;;;;6.07;4.47;;;3.10;99.90;;;;;;5071595;28;20062;-50
2022/02/20 10:08:45;;;;;;;5.47;4.28;;;3.20;99.90;;;;;;5071818;28;20051;-51
2022/02/20 10:11:17;;;;;;;6.05;4.47;;;3.10;99.90;;;;;;5071965;28;20024;-53
2022/02/20 10:13:44;;;;;;;8.05;5.03;;;3.10;99.90;;;;;;5071672;28;20077;-49
2022/02/20 10:16:22;;;;;;;4.07;3.47;;;3.10;99.90;;;;;;5071650;28;20028;-50
2022/02/20 10:18:50;;;;;;;5.38;4.28;;;3.10;99.90;;;;;;5071951;28;20021;-52
2022/02/20 10:21:29;;;;;;;5.65;4.22;;;3.20;99.90;;;;;;5072276;28;20021;-51
2022/02/20 10:24:03;;;;;;;5.70;4.32;;;3.20;99.90;;;;;;5091674;28;20024;-50
2022/02/20 10:26:29;;;;;;;4.88;3.72;;;3.20;99.90;;;;;;5062334;28;20744;-51
2022/02/20 10:29:08;;;;;;;4.38;3.97;;;3.20;99.90;;;;;;5083563;28;20055;-49
2022/02/20 10:31:54;;;;;;;5.15;4.40;;;3.30;99.90;;;;;;5087318;28;20024;-50
2022/02/20 10:34:30;;;;;;;5.70;4.78;;;3.30;99.90;;;;;;5072387;28;20124;-51
2022/02/20 10:37:04;;;;;;;6.40;4.38;;;3.30;99.90;;;;;;5079455;28;20035;-49
2022/02/20 10:39:31;;;;;;;6.55;4.70;;;3.20;99.90;;;;;;5090777;28;20056;-49
2022/02/20 10:42:11;;;;;;;5.50;4.13;;;3.20;99.90;;;;;;5090626;28;20019;-53
2022/02/20 10:45:00;;;;;;;4.85;4.22;;;3.20;99.90;;;;;;5089868;28;20067;-50
2022/02/20 10:47:29;;;;;;;3.97;3.25;;;3.20;99.90;;;;;;5089006;28;20116;-50
2022/02/20 10:50:13;;;;;;;5.15;3.22;;;3.20;99.90;;;;;;5089905;28;20024;-51
2022/02/20 10:52:38;;;;;;;5.32;3.47;;;3.20;99.90;;;;;;5090634;28;20689;-50
2022/02/20 10:55:09;;;;;;;11.93;7.43;;;3.20;99.90;;;;;;5087875;28;20024;-50
2022/02/20 10:57:39;;;;;;;5.38;4.05;;;3.20;99.90;;;;;;5091066;28;20396;-49
2022/02/20 11:00:21;;;;;;;6.68;5.07;;;3.20;99.90;;;;;;5087596;28;20024;-50
2022/02/20 11:03:12;;;;;;;5.22;3.85;;;3.20;99.90;;;;;;5090379;28;20020;-49
2022/02/20 11:05:39;;;;;;;6.90;4.53;;;3.20;99.90;;;;;;5090263;28;20024;-51
2022/02/20 11:08:09;;;;;;;5.05;3.80;;;3.20;99.90;;;;;;5072037;28;20530;-54
2022/02/20 11:10:38;;;;;;;8.13;6.30;;;3.20;99.90;;;;;;5089901;28;20028;-51
2022/02/20 11:13:06;;;;;;;6.90;5.70;;;3.20;99.90;;;;;;5089874;28;20463;-52
2022/02/20 11:15:34;;;;;;;7.57;4.30;;;3.20;99.90;;;;;;5090481;28;20046;-52
2022/02/20 11:18:04;;;;;;;6.22;4.65;;;3.20;99.90;;;;;;5070793;28;20024;-53
2022/02/20 11:20:31;;;;;;;4.18;3.35;;;3.30;99.90;;;;;;5090400;28;20093;-52
2022/02/20 11:23:01;;;;;;;4.32;3.35;;;3.30;99.90;;;;;;5090279;28;20483;-51
2022/02/20 11:25:27;;;;;;;4.93;3.78;;;3.30;99.90;;;;;;5090446;28;20024;-51
2022/02/20 11:27:56;;;;;;;3.65;3.10;;;3.40;99.90;;;;;;5089205;28;20020;-51
2022/02/20 11:30:22;;;;;;;5.15;3.45;;;3.40;99.90;;;;;;5087894;28;20383;-51
2022/02/20 11:32:48;;;;;;;4.47;3.33;;;3.50;99.90;;;;;;5089746;28;20104;-50
2022/02/20 11:35:15;;;;;;;4.72;3.67;;;3.50;99.90;;;;;;5071720;28;20025;-51
2022/02/20 11:37:52;;;;;;;4.07;3.65;;;3.50;99.90;;;;;;5079915;28;20106;-52
2022/02/20 11:40:20;;;;;;;4.43;3.47;;;3.50;99.90;;;;;;5090967;28;20039;-49
2022/02/20 11:42:58;;;;;;;4.85;4.07;;;3.50;99.90;;;;;;5089979;28;20433;-50
2022/02/20 11:45:25;;;;;;;5.32;4.22;;;3.60;99.90;;;;;;5090509;28;20028;-50
2022/02/20 11:48:00;;;;;;;5.80;4.35;;;3.60;99.90;;;;;;5088797;28;20032;-51
2022/02/20 11:50:26;;;;;;;9.02;6.28;;;3.60;99.90;;;;;;5090351;28;20027;-52
2022/02/20 11:52:57;;;;;;;7.28;4.78;;;3.70;99.90;;;;;;5089420;28;20407;-51
2022/02/20 11:55:27;;;;;;;17.35;8.57;;;3.70;99.90;;;;;;5080789;28;20056;-51
2022/02/20 11:58:11;;;;;;;8.50;6.53;;;3.70;99.90;;;;;;5070247;28;20032;-50
2022/02/20 12:01:02;;;;;;;5.93;4.70;;;3.80;99.90;;;;;;5071034;28;20407;-49
2022/02/20 12:03:33;;;;;;;6.22;5.05;;;3.80;99.90;;;;;;5070121;28;20020;-49
2022/02/20 12:06:18;;;;;;;6.32;5.68;;;3.90;99.90;;;;;;5083680;28;20241;-51
2022/02/20 12:08:54;;;;;;;8.68;6.72;;;4.00;99.90;;;;;;5090434;28;20040;-49
2022/02/20 12:11:39;;;;;;;11.68;7.55;;;4.00;99.90;;;;;;5073373;28;20031;-50
2022/02/20 12:14:20;;;;;;;7.03;5.63;;;4.10;99.90;;;;;;5070062;28;20028;-49
2022/02/20 12:17:08;;;;;;;9.15;6.45;;;4.20;99.90;;;;;;5071991;28;20057;-50
2022/02/20 12:19:39;;;;;;;9.82;7.05;;;4.30;99.90;;;;;;5088313;28;20024;-52
2022/02/20 12:22:09;;;;;;;20.90;11.52;;;4.40;99.90;;;;;;5075960;28;20024;-51
2022/02/20 12:24:42;;;;;;;8.52;6.45;;;4.50;99.90;;;;;;5094353;28;20028;-53
2022/02/20 12:27:34;;;;;;;6.50;4.95;;;4.60;99.90;;;;;;5093983;28;20032;-54
2022/02/20 12:30:12;;;;;;;8.13;6.68;;;4.80;99.90;;;;;;5093460;28;20044;-51
2022/02/20 12:32:41;;;;;;;10.75;7.00;;;4.90;99.90;;;;;;5092010;28;20024;-51
2022/02/20 12:35:09;;;;;;;7.00;5.68;;;5.10;99.90;;;;;;5072880;28;20061;-50
2022/02/20 12:37:45;;;;;;;9.20;7.22;;;5.20;99.90;;;;;;5072816;28;20031;-50
2022/02/20 12:40:15;;;;;;;6.22;5.13;;;5.30;99.90;;;;;;5081460;28;20079;-51
2022/02/20 12:42:55;;;;;;;8.40;5.63;;;5.30;99.90;;;;;;5072709;28;20099;-51
2022/02/20 12:45:26;;;;;;;16.00;10.52;;;5.40;99.90;;;;;;5073052;28;20111;-52
2022/02/20 12:47:53;;;;;;;42.53;21.25;;;5.60;99.90;;;;;;5073196;28;20407;-50
2022/02/20 12:50:21;;;;;;;7.57;6.03;;;5.60;99.90;;;;;;5072826;28;20050;-51
2022/02/20 12:52:47;;;;;;;6.90;6.20;;;5.70;99.90;;;;;;5072527;28;20544;-50
2022/02/20 12:55:19;;;;;;;7.72;6.60;;;5.80;99.90;;;;;;5072758;28;20024;-51